This is the latest recevied weather packets stored in our database for station/object SA4AGM-10. If no packets are shown the sender has not sent any weather packets the latest 10 day(s).
| Time | Temp. | Humidity | Pressure | Rain* | Wind** | Luminosity | Snow |
|---|---|---|---|---|---|---|---|
| 1777592314 | 5.56° C | 100% | 1024.1 hPa | - | - | - | - |
| 1777591414 | 6.11° C | 100% | 1024 hPa | - | - | - | - |
| 1777590514 | 6.67° C | 100% | 1024 hPa | - | - | - | - |
| 1777589614 | 6.67° C | 100% | 1023.9 hPa | - | - | - | - |
| 1777588714 | 7.22° C | 99% | 1023.9 hPa | - | - | - | - |
| 1777587813 | 7.22° C | 100% | 1024 hPa | - | - | - | - |
| 1777586913 | 7.78° C | 100% | 1024 hPa | - | - | - | - |
| 1777586013 | 8.33° C | 94% | 1024.1 hPa | - | - | - | - |
| 1777585113 | 8.33° C | 94% | 1024.2 hPa | - | - | - | - |
| 1777584213 | 8.33° C | 92% | 1024.1 hPa | - | - | - | - |
| 1777583313 | 9.44° C | 89% | 1024.2 hPa | - | - | - | - |
| 1777582413 | 9.44° C | 89% | 1024.3 hPa | - | - | - | - |
| 1777581513 | 10° C | 84% | 1024.2 hPa | - | - | - | - |
| 1777580613 | 10.56° C | 84% | 1024 hPa | - | - | - | - |
| 1777579713 | 11.11° C | 83% | 1023.9 hPa | - | - | - | - |
| 1777578813 | 11.67° C | 71% | 1023.8 hPa | - | - | - | - |
| 1777577912 | 12.78° C | 78% | 1023.7 hPa | - | - | - | - |
| 1777577012 | 12.78° C | 81% | 1023.7 hPa | - | - | - | - |
| 1777576112 | 14.44° C | 61% | 1023.7 hPa | - | - | - | - |
| 1777575212 | 15.56° C | 52% | 1023.6 hPa | - | - | - | - |
| 1777574312 | 16.67° C | 49% | 1023.4 hPa | - | - | - | - |
| 1777573412 | 17.78° C | 42% | 1023.4 hPa | - | - | - | - |
| 1777572512 | 18.89° C | 43% | 1023.3 hPa | - | - | - | - |
| 1777571612 | 19.44° C | 40% | 1023.2 hPa | - | - | - | - |
| 1777570712 | 20.56° C | 35% | 1023.2 hPa | - | - | - | - |
* Rain since midnight (hover to see other rain measurements)
** Current wind speed in m/s (hover to see current wind gust speed)